Time;durP1;ratioP1;P1;durP2;ratioP2;P2;SDS_P1;SDS_P2;PMS_P1;PMS_P2;Temp;Humidity;BMP_temperature;BMP_pressure;BME280_temperature;BME280_humidity;BME280_pressure;Samples;Min_cycle;Max_cycle;Signal;HPM_P1;HPM_P2
2022/08/09 00:00:20;;;;;;;1.52;0.62;;;22.60;36.10;;;;;;2285569;55;20996;-72
2022/08/09 00:02:46;;;;;;;1.77;0.70;;;22.60;36.10;;;;;;2285703;56;21493;-72
2022/08/09 00:05:12;;;;;;;1.35;0.70;;;22.50;36.20;;;;;;2285506;55;20932;-72
2022/08/09 00:07:42;;;;;;;1.55;0.75;;;22.50;36.30;;;;;;2285631;55;21013;-73
2022/08/09 00:10:09;;;;;;;2.00;0.80;;;22.40;36.30;;;;;;2316490;55;21057;-71
2022/08/09 00:12:35;;;;;;;1.40;0.70;;;22.40;36.60;;;;;;2288638;55;20934;-72
2022/08/09 00:15:02;;;;;;;1.60;0.60;;;22.40;36.70;;;;;;2284562;55;21037;-72
2022/08/09 00:17:32;;;;;;;2.17;0.70;;;22.30;36.60;;;;;;2289578;55;21490;-72
2022/08/09 00:19:58;;;;;;;1.62;0.90;;;22.30;36.60;;;;;;2267211;55;21607;-73
2022/08/09 00:22:25;;;;;;;1.37;0.65;;;22.20;36.60;;;;;;2287424;55;20960;-72
2022/08/09 00:24:51;;;;;;;1.70;0.60;;;22.20;36.70;;;;;;2286692;55;21452;-71
2022/08/09 00:27:18;;;;;;;1.52;0.70;;;22.10;36.60;;;;;;2295330;55;21822;-75
2022/08/09 00:29:45;;;;;;;3.80;0.62;;;22.10;36.70;;;;;;2280680;55;21557;-75
2022/08/09 00:32:11;;;;;;;5.20;0.93;;;22.00;36.70;;;;;;2286100;55;21039;-73
2022/08/09 00:34:38;;;;;;;1.45;0.70;;;22.00;37.00;;;;;;2517252;55;20977;-73
2022/08/09 00:37:04;;;;;;;1.58;0.68;;;21.90;36.90;;;;;;2286029;56;20996;-72
2022/08/09 00:39:31;;;;;;;1.60;0.70;;;21.90;37.00;;;;;;2289477;55;20978;-72
2022/08/09 00:41:59;;;;;;;1.40;0.68;;;21.80;36.90;;;;;;2285649;55;21005;-72
2022/08/09 00:44:25;;;;;;;1.67;0.70;;;21.70;36.90;;;;;;2287566;55;20941;-72
2022/08/09 00:46:56;;;;;;;2.17;0.60;;;21.70;37.00;;;;;;2292256;55;21141;-72
2022/08/09 00:49:25;;;;;;;1.02;0.55;;;21.60;37.10;;;;;;2293977;55;20985;-72
2022/08/09 00:51:54;;;;;;;1.17;0.60;;;21.60;37.30;;;;;;2280249;55;20933;-72
2022/08/09 00:54:21;;;;;;;2.25;0.80;;;21.60;37.40;;;;;;2287074;55;20948;-72
2022/08/09 00:56:48;;;;;;;2.35;0.75;;;21.50;37.80;;;;;;2285633;55;21457;-72
2022/08/09 00:59:15;;;;;;;1.70;0.57;;;21.50;37.90;;;;;;2287771;55;20968;-72
2022/08/09 01:01:41;;;;;;;1.50;0.70;;;21.40;38.40;;;;;;2521876;55;20952;-71
2022/08/09 01:04:18;;;;;;;1.12;0.55;;;21.40;37.80;;;;;;2287845;55;20985;-70
2022/08/09 01:09:53;;;;;;;2.25;0.77;;;21.30;38.00;;;;;;2495652;55;21806;-75
2022/08/09 01:13:13;;;;;;;2.25;0.60;;;21.30;37.80;;;;;;2288036;56;20953;-71
2022/08/09 01:15:44;;;;;;;1.58;0.60;;;21.20;38.10;;;;;;2521818;55;21655;-75
2022/08/09 01:18:13;;;;;;;1.08;0.50;;;21.10;37.70;;;;;;2287905;55;22061;-74
2022/08/09 01:23:51;;;;;;;1.27;0.57;;;21.00;37.90;;;;;;2522020;55;20956;-72
2022/08/09 01:27:10;;;;;;;1.05;0.40;;;20.90;38.10;;;;;;2290623;55;20990;-72
2022/08/09 01:29:47;;;;;;;1.15;0.60;;;20.80;38.10;;;;;;2300242;55;21355;-71
2022/08/09 01:32:14;;;;;;;;;;;20.80;38.00;;;;;;2291182;55;21008;-72
2022/08/09 01:34:42;;;;;;;0.88;0.40;;;20.80;38.10;;;;;;2496421;55;20109;-71
2022/08/09 01:37:10;;;;;;;1.10;0.52;;;20.70;37.80;;;;;;2287832;56;20977;-74
2022/08/09 01:39:36;;;;;;;1.27;0.60;;;20.60;38.00;;;;;;2284230;56;20988;-71
2022/08/09 01:42:03;;;;;;;1.70;0.80;;;20.50;38.20;;;;;;2360375;55;21072;-71
2022/08/09 01:44:32;;;;;;;1.45;0.70;;;20.50;38.60;;;;;;2422118;55;20951;-72
2022/08/09 01:47:00;;;;;;;1.37;0.60;;;20.40;38.70;;;;;;2358420;55;20952;-71
2022/08/09 01:49:29;;;;;;;1.27;0.60;;;20.40;38.70;;;;;;2290882;55;21869;-71
2022/08/09 01:51:58;;;;;;;1.70;0.77;;;20.30;38.70;;;;;;2383032;55;20924;-71
2022/08/09 01:54:30;;;;;;;1.50;0.65;;;20.30;38.70;;;;;;2434405;55;20968;-71
2022/08/09 01:56:57;;;;;;;1.12;0.57;;;20.20;38.90;;;;;;2290094;56;21449;-72
2022/08/09 01:59:24;;;;;;;1.37;0.70;;;20.20;38.70;;;;;;2430542;55;21394;-73
2022/08/09 02:01:55;;;;;;;1.25;0.57;;;20.20;38.80;;;;;;2287562;56;20948;-71
2022/08/09 02:04:22;;;;;;;1.43;0.70;;;20.10;39.00;;;;;;2288382;55;20947;-74
2022/08/09 02:07:08;;;;;;;1.35;0.68;;;20.10;39.00;;;;;;2374132;55;21428;-71
2022/08/09 02:09:37;;;;;;;2.53;0.70;;;20.10;39.10;;;;;;2521752;55;21049;-72
2022/08/09 02:12:04;;;;;;;1.20;0.60;;;20.00;39.20;;;;;;2269219;55;20954;-72
2022/08/09 02:14:31;;;;;;;1.30;0.68;;;20.00;39.20;;;;;;2392805;55;20936;-71
2022/08/09 02:16:58;;;;;;;1.20;0.60;;;19.90;39.20;;;;;;2287832;56;21017;-72
2022/08/09 02:19:25;;;;;;;1.35;0.60;;;19.90;39.30;;;;;;2331911;55;20998;-70
2022/08/09 02:21:53;;;;;;;1.37;0.70;;;19.90;39.30;;;;;;2285829;55;21064;-73
2022/08/09 02:24:23;;;;;;;1.05;0.52;;;19.80;39.50;;;;;;2375697;55;21013;-70
2022/08/09 02:26:50;;;;;;;1.60;0.70;;;19.80;39.60;;;;;;2291597;55;21054;-71
2022/08/09 02:29:19;;;;;;;1.05;0.50;;;19.70;39.60;;;;;;2306704;55;21067;-72
2022/08/09 02:31:49;;;;;;;1.58;0.80;;;19.70;39.80;;;;;;2279788;55;21072;-71
2022/08/09 02:34:17;;;;;;;1.37;0.62;;;19.60;40.00;;;;;;2522163;55;21000;-74
2022/08/09 02:36:47;;;;;;;1.85;0.80;;;19.60;40.20;;;;;;2267015;55;20940;-73
2022/08/09 02:39:17;;;;;;;2.00;0.80;;;19.60;40.30;;;;;;2332463;55;21076;-74
2022/08/09 02:41:48;;;;;;;1.73;0.77;;;19.50;40.20;;;;;;2282210;55;20955;-71
2022/08/09 02:44:19;;;;;;;2.10;0.85;;;19.50;40.30;;;;;;2319563;55;20964;-71
2022/08/09 02:46:45;;;;;;;1.10;0.62;;;19.50;40.20;;;;;;2287318;56;21865;-71
2022/08/09 02:49:13;;;;;;;1.08;0.65;;;19.50;40.20;;;;;;2293166;55;20924;-75
2022/08/09 02:51:40;;;;;;;2.25;0.73;;;19.40;40.30;;;;;;2287801;55;20944;-71
2022/08/09 02:54:12;;;;;;;2.22;0.90;;;19.40;40.50;;;;;;2431823;55;21016;-74
2022/08/09 02:56:41;;;;;;;0.75;0.47;;;19.30;40.60;;;;;;2448678;55;21371;-72
2022/08/09 02:59:08;;;;;;;1.30;0.70;;;19.30;40.60;;;;;;2404910;55;21241;-71
2022/08/09 03:01:36;;;;;;;1.37;0.60;;;19.30;40.60;;;;;;2287463;56;20992;-72
2022/08/09 03:04:04;;;;;;;1.52;0.80;;;19.30;40.60;;;;;;2443430;55;21040;-72
2022/08/09 03:06:30;;;;;;;1.08;0.50;;;19.30;40.60;;;;;;2293726;55;20940;-71
2022/08/09 03:09:00;;;;;;;1.75;0.70;;;19.20;40.70;;;;;;2287676;55;20929;-71
2022/08/09 03:11:26;;;;;;;3.90;0.75;;;19.20;40.70;;;;;;2288067;55;20957;-74
2022/08/09 03:13:52;;;;;;;1.90;0.65;;;19.10;41.00;;;;;;2387490;55;21047;-72
2022/08/09 03:16:19;;;;;;;2.60;0.57;;;19.10;41.10;;;;;;2290402;55;21028;-71
2022/08/09 03:18:46;;;;;;;1.33;0.70;;;19.10;41.10;;;;;;2352363;55;20968;-71
2022/08/09 03:21:14;;;;;;;1.58;0.80;;;19.10;41.00;;;;;;2292063;55;20952;-74
2022/08/09 03:23:45;;;;;;;1.52;0.70;;;19.00;41.00;;;;;;2358574;55;21494;-70
2022/08/09 03:26:16;;;;;;;1.70;0.70;;;19.00;41.00;;;;;;2282698;55;20971;-73
2022/08/09 03:28:43;;;;;;;1.10;0.50;;;19.00;41.20;;;;;;2295029;55;21469;-72
2022/08/09 03:31:09;;;;;;;1.12;0.60;;;18.90;40.90;;;;;;2507069;55;21234;-71
2022/08/09 03:33:39;;;;;;;1.90;0.70;;;18.90;41.00;;;;;;2501009;55;21003;-71
2022/08/09 03:36:06;;;;;;;0.82;0.50;;;18.90;41.20;;;;;;2284342;55;20954;-70
2022/08/09 03:38:37;;;;;;;1.67;0.70;;;18.80;41.20;;;;;;2496117;55;20900;-74
2022/08/09 03:41:04;;;;;;;0.95;0.55;;;18.80;41.40;;;;;;2287731;56;21025;-73
2022/08/09 03:43:31;;;;;;;2.03;0.90;;;18.70;41.20;;;;;;2287140;55;20937;-73
2022/08/09 03:45:58;;;;;;;2.03;0.82;;;18.70;41.30;;;;;;2286988;55;21625;-74
2022/08/09 03:48:25;;;;;;;1.75;0.80;;;18.70;41.50;;;;;;2291022;55;21734;-74
2022/08/09 03:50:53;;;;;;;1.70;0.80;;;18.60;41.40;;;;;;2285063;55;20956;-71
2022/08/09 03:53:20;;;;;;;1.60;0.70;;;18.60;41.50;;;;;;2504062;55;21060;-71
2022/08/09 03:55:47;;;;;;;1.37;0.68;;;18.60;41.50;;;;;;2277546;55;21282;-71
2022/08/09 03:58:14;;;;;;;1.27;0.62;;;18.60;41.50;;;;;;2417548;55;21008;-71
2022/08/09 04:00:40;;;;;;;1.00;0.60;;;18.60;41.80;;;;;;2400898;55;21789;-70
2022/08/09 04:03:10;;;;;;;1.60;0.80;;;18.50;41.80;;;;;;2289479;54;21010;-71
2022/08/09 04:05:36;;;;;;;1.75;0.70;;;18.50;41.80;;;;;;2268868;56;20945;-70
2022/08/09 04:08:06;;;;;;;2.40;0.88;;;18.50;41.80;;;;;;2342190;55;20932;-72
2022/08/09 04:10:32;;;;;;;1.62;0.75;;;18.50;42.10;;;;;;2287770;55;21104;-71
2022/08/09 04:13:08;;;;;;;1.23;0.68;;;18.40;42.10;;;;;;2398212;55;20949;-73
2022/08/09 04:15:34;;;;;;;1.35;0.70;;;18.40;42.10;;;;;;2290033;55;20973;-69
2022/08/09 04:18:02;;;;;;;1.40;0.70;;;18.40;42.10;;;;;;2297827;55;21397;-71
2022/08/09 04:20:29;;;;;;;1.90;0.90;;;18.40;42.10;;;;;;2518097;55;21773;-70
2022/08/09 04:22:56;;;;;;;2.05;0.95;;;18.40;42.20;;;;;;2429664;54;21748;-72
2022/08/09 04:25:22;;;;;;;1.58;0.70;;;18.30;42.20;;;;;;2456712;55;21798;-75
2022/08/09 04:27:48;;;;;;;2.40;0.90;;;18.30;42.20;;;;;;2522225;55;21008;-70
2022/08/09 04:30:18;;;;;;;1.83;0.88;;;18.30;42.30;;;;;;2287710;55;21441;-71
2022/08/09 04:32:45;;;;;;;1.90;0.90;;;18.30;42.40;;;;;;2323638;55;21044;-71
2022/08/09 04:35:15;;;;;;;1.80;0.98;;;18.30;42.40;;;;;;2287863;55;21524;-71
2022/08/09 04:37:41;;;;;;;1.80;0.77;;;18.30;42.40;;;;;;2475654;55;20980;-71
2022/08/09 04:40:12;;;;;;;1.50;0.70;;;18.20;42.30;;;;;;2399414;55;21850;-71
2022/08/09 04:42:40;;;;;;;1.77;0.70;;;18.20;42.40;;;;;;2393837;55;20940;-71
2022/08/09 04:45:08;;;;;;;2.40;0.93;;;18.20;42.40;;;;;;2289451;55;20986;-71
2022/08/09 04:47:35;;;;;;;2.00;0.88;;;18.10;43.00;;;;;;2352831;55;20964;-73
2022/08/09 04:50:01;;;;;;;1.62;0.80;;;18.10;42.50;;;;;;2289503;55;20994;-71
2022/08/09 04:52:28;;;;;;;1.83;0.80;;;18.10;42.60;;;;;;2308303;55;20991;-72
2022/08/09 04:55:00;;;;;;;1.50;0.80;;;18.10;42.70;;;;;;2287290;55;21010;-70
2022/08/09 04:57:27;;;;;;;1.52;0.75;;;18.00;43.00;;;;;;2305885;55;21625;-71
2022/08/09 04:59:54;;;;;;;1.65;0.80;;;18.00;42.90;;;;;;2285297;55;20969;-74
2022/08/09 05:02:40;;;;;;;1.52;0.80;;;18.00;43.50;;;;;;2519250;55;20964;-74
2022/08/09 05:05:07;;;;;;;1.80;0.80;;;18.00;44.00;;;;;;2288193;55;21021;-71
2022/08/09 05:07:34;;;;;;;1.48;0.77;;;18.00;43.00;;;;;;2375267;55;21396;-71
2022/08/09 05:10:01;;;;;;;2.30;0.88;;;18.00;43.10;;;;;;2285566;55;21563;-73
2022/08/09 05:12:28;;;;;;;2.10;0.90;;;18.00;43.20;;;;;;2361129;55;20937;-71
2022/08/09 05:14:56;;;;;;;1.35;0.73;;;18.00;43.20;;;;;;2285547;56;20991;-71
2022/08/09 05:17:23;;;;;;;1.50;0.77;;;18.00;43.30;;;;;;2412324;55;21029;-70
2022/08/09 05:19:50;;;;;;;1.83;0.88;;;18.00;43.30;;;;;;2285540;55;21540;-72
2022/08/09 05:22:17;;;;;;;2.08;1.00;;;18.00;43.40;;;;;;2520164;55;20986;-71
2022/08/09 05:24:44;;;;;;;1.80;0.90;;;18.00;43.50;;;;;;2285672;56;21020;-73
2022/08/09 05:27:10;;;;;;;1.77;0.80;;;18.00;43.60;;;;;;2305402;54;20949;-73
2022/08/09 05:29:37;;;;;;;2.10;0.90;;;18.00;43.70;;;;;;2286592;55;21032;-73
2022/08/09 05:32:04;;;;;;;2.00;1.10;;;18.00;43.70;;;;;;2307383;55;20976;-71
2022/08/09 05:34:32;;;;;;;2.12;1.02;;;18.00;43.90;;;;;;2286152;55;20961;-72
2022/08/09 05:37:02;;;;;;;2.12;0.90;;;18.00;44.00;;;;;;2374600;55;21056;-71
2022/08/09 05:39:46;;;;;;;2.17;1.00;;;18.00;44.10;;;;;;2289638;56;21026;-72
2022/08/09 05:42:13;;;;;;;2.25;1.00;;;18.00;44.50;;;;;;2330507;55;21335;-71
2022/08/09 05:44:39;;;;;;;2.28;0.95;;;18.10;44.30;;;;;;2289163;56;21025;-70
2022/08/09 05:47:06;;;;;;;2.42;0.98;;;18.10;44.30;;;;;;2285565;55;20957;-71
2022/08/09 05:49:33;;;;;;;1.85;1.00;;;18.10;44.50;;;;;;2286989;55;20985;-73
2022/08/09 05:51:59;;;;;;;2.10;1.00;;;18.10;44.60;;;;;;2286692;55;21465;-71
2022/08/09 05:54:26;;;;;;;4.10;1.10;;;18.20;44.80;;;;;;2314601;55;21085;-71
2022/08/09 05:56:55;;;;;;;1.85;0.90;;;18.20;44.80;;;;;;2315224;55;21026;-73
2022/08/09 05:59:22;;;;;;;2.10;1.12;;;18.30;45.00;;;;;;2267336;55;21488;-72
2022/08/09 06:01:51;;;;;;;3.25;1.00;;;18.30;45.00;;;;;;2319115;55;20933;-71
2022/08/09 06:04:19;;;;;;;2.10;1.00;;;18.40;45.10;;;;;;2289194;55;20989;-70
2022/08/09 06:06:46;;;;;;;2.25;1.10;;;18.40;45.10;;;;;;2307459;55;21008;-71
2022/08/09 06:09:13;;;;;;;2.20;1.00;;;18.50;45.20;;;;;;2309316;55;20946;-74
2022/08/09 06:11:39;;;;;;;2.45;1.20;;;18.60;45.40;;;;;;2349602;55;21020;-72
2022/08/09 06:14:07;;;;;;;2.55;1.30;;;18.60;45.30;;;;;;2383248;55;21032;-71
2022/08/09 06:16:35;;;;;;;5.00;1.37;;;18.70;45.50;;;;;;2432836;55;21422;-73
2022/08/09 06:19:01;;;;;;;3.33;1.70;;;18.80;45.70;;;;;;2288348;55;21071;-71
2022/08/09 06:21:28;;;;;;;2.60;1.42;;;18.90;45.80;;;;;;2427684;55;20948;-71
2022/08/09 06:23:56;;;;;;;2.87;1.20;;;18.90;45.90;;;;;;2290635;55;21046;-72
2022/08/09 06:26:23;;;;;;;2.25;1.20;;;19.00;45.90;;;;;;2284392;55;21613;-71
2022/08/09 06:28:50;;;;;;;2.03;1.10;;;19.00;45.90;;;;;;2299113;55;21006;-74
2022/08/09 06:31:16;;;;;;;2.35;1.00;;;19.10;45.90;;;;;;2266953;55;21030;-71
2022/08/09 06:33:43;;;;;;;1.65;0.85;;;19.20;45.90;;;;;;2282592;55;20969;-72
2022/08/09 06:36:10;;;;;;;4.32;1.08;;;19.30;45.80;;;;;;2286046;55;21053;-71
2022/08/09 06:38:39;;;;;;;2.00;1.17;;;19.40;45.80;;;;;;2283447;55;20956;-73
2022/08/09 06:41:06;;;;;;;2.08;0.90;;;19.40;45.80;;;;;;2287362;55;21480;-71
2022/08/09 06:43:32;;;;;;;2.20;1.00;;;19.50;45.80;;;;;;2289382;55;20930;-72
2022/08/09 06:46:00;;;;;;;3.67;1.20;;;19.60;45.80;;;;;;2285178;55;21048;-75
2022/08/09 06:48:26;;;;;;;3.53;1.30;;;19.70;45.90;;;;;;2285369;56;21356;-71
2022/08/09 06:50:53;;;;;;;2.65;1.15;;;19.80;46.00;;;;;;2285660;56;21288;-72
2022/08/09 06:53:19;;;;;;;1.73;0.93;;;19.90;46.20;;;;;;2285738;56;21452;-71
2022/08/09 06:55:45;;;;;;;2.25;1.08;;;20.00;46.20;;;;;;2285537;56;20945;-74
2022/08/09 06:58:13;;;;;;;4.03;1.10;;;20.10;46.20;;;;;;2286074;56;21128;-72
2022/08/09 07:00:39;;;;;;;2.17;1.20;;;20.20;46.20;;;;;;2285799;56;20957;-71
2022/08/09 07:03:07;;;;;;;2.45;1.20;;;20.30;46.40;;;;;;2285875;56;21029;-72
2022/08/09 07:05:33;;;;;;;3.83;1.20;;;20.40;46.50;;;;;;2453787;55;20974;-75
2022/08/09 07:07:59;;;;;;;2.08;1.02;;;20.50;46.40;;;;;;2414351;55;20941;-74
2022/08/09 07:10:27;;;;;;;3.20;1.02;;;20.60;46.50;;;;;;2288990;55;20954;-72
2022/08/09 07:12:53;;;;;;;4.10;0.93;;;20.70;46.50;;;;;;2301380;55;20926;-72
2022/08/09 07:15:20;;;;;;;2.22;1.10;;;20.80;46.40;;;;;;2285843;55;21685;-72
2022/08/09 07:17:46;;;;;;;2.60;1.20;;;20.90;46.30;;;;;;2366307;55;20929;-71
2022/08/09 07:20:14;;;;;;;2.50;1.02;;;21.10;46.50;;;;;;2468935;55;20941;-72
2022/08/09 07:22:42;;;;;;;1.80;0.90;;;21.20;46.40;;;;;;2285498;55;20965;-74
2022/08/09 07:25:10;;;;;;;3.95;1.10;;;21.30;46.30;;;;;;2291616;55;21673;-73
2022/08/09 07:27:37;;;;;;;2.75;1.05;;;21.40;46.20;;;;;;2288148;55;21391;-75
2022/08/09 07:30:04;;;;;;;3.22;1.10;;;21.50;46.30;;;;;;2278302;55;22154;-74
2022/08/09 07:32:31;;;;;;;2.67;1.17;;;21.60;46.30;;;;;;2289129;55;20949;-74
2022/08/09 07:34:57;;;;;;;4.40;1.40;;;21.70;46.20;;;;;;2284943;55;21561;-74
2022/08/09 07:37:23;;;;;;;3.95;0.98;;;21.90;46.20;;;;;;2289033;55;21106;-74
2022/08/09 07:39:49;;;;;;;2.22;1.20;;;22.00;46.10;;;;;;2284999;56;20981;-74
2022/08/09 07:42:16;;;;;;;1.55;0.88;;;22.10;46.00;;;;;;2284704;55;20964;-75
2022/08/09 07:44:43;;;;;;;2.37;1.00;;;22.30;46.00;;;;;;2312299;55;21013;-74
2022/08/09 07:47:10;;;;;;;2.60;1.17;;;22.40;45.90;;;;;;2386417;55;20960;-74
2022/08/09 07:49:36;;;;;;;1.80;0.85;;;22.60;46.20;;;;;;2510282;55;20961;-74
2022/08/09 07:52:04;;;;;;;1.98;1.12;;;22.70;46.20;;;;;;2286837;55;20977;-74
2022/08/09 07:54:33;;;;;;;3.15;1.30;;;22.80;46.00;;;;;;2281782;55;21484;-75
2022/08/09 07:57:00;;;;;;;2.53;1.10;;;23.00;46.00;;;;;;2280504;55;21753;-73
2022/08/09 07:59:27;;;;;;;19.52;4.03;;;23.10;45.80;;;;;;2288185;55;21227;-74
2022/08/09 08:01:54;;;;;;;4.55;1.87;;;23.20;45.70;;;;;;2335216;55;20941;-73
2022/08/09 08:04:21;;;;;;;3.20;1.48;;;23.40;45.60;;;;;;2285657;55;20957;-73
2022/08/09 08:06:47;;;;;;;3.05;1.30;;;23.50;45.40;;;;;;2285737;56;21043;-73
2022/08/09 08:09:15;;;;;;;2.95;1.40;;;23.70;45.40;;;;;;2289852;55;21047;-73
2022/08/09 08:11:42;;;;;;;2.25;0.98;;;23.80;45.20;;;;;;2279044;55;21020;-73
2022/08/09 08:14:08;;;;;;;2.78;1.27;;;23.90;45.00;;;;;;2286301;56;21576;-73
2022/08/09 08:16:35;;;;;;;2.65;1.30;;;24.00;45.00;;;;;;2285945;56;20968;-73
2022/08/09 08:19:01;;;;;;;3.75;1.45;;;24.10;44.70;;;;;;2285935;55;20968;-74
2022/08/09 08:21:29;;;;;;;3.58;1.30;;;24.30;44.60;;;;;;2521414;55;21031;-75
2022/08/09 08:23:56;;;;;;;3.53;1.60;;;24.40;44.40;;;;;;2505928;55;21279;-73
2022/08/09 08:26:22;;;;;;;5.37;1.30;;;24.50;44.30;;;;;;2288805;55;21486;-73
2022/08/09 08:28:52;;;;;;;3.00;1.55;;;24.60;44.20;;;;;;2459204;55;20940;-73
2022/08/09 08:31:19;;;;;;;2.92;1.42;;;24.80;44.10;;;;;;2289620;55;20960;-74
2022/08/09 08:33:45;;;;;;;5.03;1.60;;;24.90;44.00;;;;;;2313799;55;21825;-74
2022/08/09 08:36:11;;;;;;;3.08;1.40;;;25.00;43.90;;;;;;2282553;55;21581;-73
2022/08/09 08:38:38;;;;;;;3.30;1.37;;;25.10;43.70;;;;;;2402874;55;20993;-74
2022/08/09 08:41:05;;;;;;;3.00;1.40;;;25.20;43.50;;;;;;2285243;55;20952;-73
2022/08/09 08:43:32;;;;;;;5.78;1.50;;;25.40;43.40;;;;;;2292640;55;20984;-74
2022/08/09 08:46:02;;;;;;;2.58;1.17;;;25.50;43.20;;;;;;2278592;55;20953;-74
2022/08/09 08:48:31;;;;;;;3.78;1.58;;;25.60;43.00;;;;;;2295945;55;21562;-73
2022/08/09 08:50:58;;;;;;;3.50;1.42;;;25.70;43.00;;;;;;2493788;55;21024;-73
2022/08/09 08:53:24;;;;;;;4.53;1.55;;;25.80;42.90;;;;;;2377541;55;21048;-74
2022/08/09 08:55:50;;;;;;;3.33;1.42;;;25.90;42.80;;;;;;2288489;55;21120;-74
2022/08/09 08:58:17;;;;;;;2.92;1.50;;;26.00;42.80;;;;;;2286824;55;21246;-74
2022/08/09 09:00:43;;;;;;;2.35;1.17;;;26.10;42.60;;;;;;2290440;55;21051;-75
2022/08/09 09:03:10;;;;;;;3.83;1.42;;;26.20;42.40;;;;;;2289644;54;21541;-74
2022/08/09 09:05:38;;;;;;;3.37;1.35;;;26.30;42.30;;;;;;2289550;55;21044;-75
2022/08/09 09:08:06;;;;;;;3.42;1.77;;;26.50;42.30;;;;;;2283743;55;21396;-74
2022/08/09 09:10:32;;;;;;;5.12;1.52;;;26.60;42.10;;;;;;2288433;55;21014;-75
2022/08/09 09:12:59;;;;;;;3.62;1.50;;;26.60;42.10;;;;;;2452479;55;20957;-74
2022/08/09 09:15:25;;;;;;;3.92;1.40;;;26.80;42.10;;;;;;2281196;55;21905;-75
2022/08/09 09:17:51;;;;;;;3.92;1.20;;;26.90;41.80;;;;;;2286704;55;20957;-75
2022/08/09 09:20:18;;;;;;;3.33;1.30;;;27.00;41.60;;;;;;2286737;56;21552;-73
2022/08/09 09:22:57;;;;;;;3.67;1.48;;;27.10;41.50;;;;;;2301525;55;20993;-74
2022/08/09 09:25:42;;;;;;;2.67;1.10;;;27.20;41.20;;;;;;2311231;55;21056;-74
2022/08/09 09:28:10;;;;;;;2.80;1.23;;;27.40;41.40;;;;;;2269781;55;20978;-75
2022/08/09 09:30:54;;;;;;;4.93;1.33;;;27.50;41.20;;;;;;2493652;55;20965;-74
2022/08/09 09:33:29;;;;;;;2.40;1.00;;;27.60;40.70;;;;;;2285601;55;21000;-75
2022/08/09 09:36:02;;;;;;;2.97;1.17;;;27.70;40.70;;;;;;2288965;55;21093;-75
2022/08/09 09:38:51;;;;;;;4.40;1.10;;;27.80;40.30;;;;;;2289938;55;20937;-77
2022/08/09 09:41:28;;;;;;;4.28;1.10;;;27.90;40.30;;;;;;2343489;55;21016;-77
2022/08/09 09:43:55;;;;;;;3.62;1.30;;;28.10;40.20;;;;;;2497858;55;21012;-75
2022/08/09 09:46:37;;;;;;;3.17;1.08;;;28.20;40.20;;;;;;2285291;55;20984;-75
2022/08/09 09:49:21;;;;;;;4.78;1.20;;;28.20;39.70;;;;;;2285839;55;20932;-75
2022/08/09 09:51:47;;;;;;;2.65;1.15;;;28.40;39.60;;;;;;2289077;55;20953;-76
2022/08/09 09:54:17;;;;;;;3.03;0.90;;;28.50;39.70;;;;;;2325716;55;21044;-76
2022/08/09 09:56:45;;;;;;;4.35;1.05;;;28.60;39.50;;;;;;2292798;55;21465;-75
2022/08/09 09:59:14;;;;;;;2.85;0.95;;;28.80;39.40;;;;;;2283946;55;21463;-73
2022/08/09 10:01:41;;;;;;;2.95;1.15;;;28.90;39.20;;;;;;2287296;55;20965;-75
2022/08/09 10:04:17;;;;;;;2.40;1.10;;;29.00;39.00;;;;;;2289349;55;21063;-74
2022/08/09 10:06:45;;;;;;;1.65;0.70;;;29.10;38.60;;;;;;2287640;55;21092;-75
2022/08/09 10:09:16;;;;;;;2.67;0.90;;;29.20;38.80;;;;;;2285872;56;20929;-74
2022/08/09 10:11:42;;;;;;;2.40;0.90;;;29.30;38.60;;;;;;2287892;55;20976;-74
2022/08/09 10:14:25;;;;;;;2.25;1.00;;;29.40;38.40;;;;;;2287373;55;21063;-74
2022/08/09 10:16:51;;;;;;;3.83;1.10;;;29.60;37.80;;;;;;2292131;55;21584;-74
2022/08/09 10:19:18;;;;;;;2.40;1.27;;;29.60;38.10;;;;;;2279736;55;20997;-74
2022/08/09 10:21:49;;;;;;;1.98;0.80;;;29.70;37.70;;;;;;2285465;55;20964;-74
2022/08/09 10:24:20;;;;;;;4.82;1.00;;;29.80;37.40;;;;;;2267498;56;21076;-72
2022/08/09 10:26:47;;;;;;;;;;;29.90;37.20;;;;;;2289493;55;21028;-74
2022/08/09 10:29:14;;;;;;;1.90;0.75;;;30.00;37.30;;;;;;2340468;55;20077;-75
2022/08/09 10:31:42;;;;;;;2.15;0.80;;;30.10;37.20;;;;;;2285676;55;20953;-75
2022/08/09 10:34:39;;;;;;;2.12;0.95;;;30.20;36.90;;;;;;2346768;55;21091;-74
2022/08/09 10:37:06;;;;;;;2.10;0.70;;;30.30;36.60;;;;;;2285511;55;21048;-74
2022/08/09 10:39:32;;;;;;;5.07;1.20;;;30.30;36.60;;;;;;2309508;54;20961;-75
2022/08/09 10:41:58;;;;;;;3.12;0.70;;;30.40;36.40;;;;;;2285804;56;21563;-74
2022/08/09 10:44:26;;;;;;;1.85;0.82;;;30.50;36.20;;;;;;2292290;55;21405;-75
2022/08/09 10:49:13;;;;;;;1.87;0.80;;;30.60;36.10;;;;;;2286152;56;20965;-74
2022/08/09 10:52:17;;;;;;;2.67;0.80;;;30.70;35.90;;;;;;2441936;55;20972;-74
2022/08/09 10:54:43;;;;;;;9.82;1.25;;;30.90;35.40;;;;;;2286154;56;21079;-74
2022/08/09 10:57:12;;;;;;;1.95;0.77;;;30.90;35.60;;;;;;2339647;55;21028;-74
2022/08/09 10:59:48;;;;;;;1.65;0.80;;;31.10;35.40;;;;;;2286115;55;20953;-75
2022/08/09 11:02:18;;;;;;;2.30;1.10;;;31.10;35.20;;;;;;2291872;55;20996;-76
2022/08/09 11:05:12;;;;;;;4.00;1.08;;;31.20;35.00;;;;;;2285820;56;21137;-74
2022/08/09 11:07:39;;;;;;;1.77;0.80;;;31.30;34.70;;;;;;2302523;55;21076;-75
2022/08/09 11:10:06;;;;;;;1.60;0.70;;;31.40;34.50;;;;;;2361989;55;20993;-75
2022/08/09 11:12:33;;;;;;;2.15;0.62;;;31.50;34.20;;;;;;2284957;55;21012;-75
2022/08/09 11:15:20;;;;;;;1.60;0.68;;;31.60;34.00;;;;;;2291585;55;21852;-74
2022/08/09 11:17:48;;;;;;;2.25;0.80;;;31.70;33.80;;;;;;2506440;55;21095;-75
2022/08/09 11:20:15;;;;;;;2.55;0.85;;;31.80;33.90;;;;;;2285466;55;20956;-75
2022/08/09 11:23:05;;;;;;;1.60;0.62;;;31.90;34.00;;;;;;2285630;55;21037;-74
2022/08/09 11:25:36;;;;;;;1.73;0.70;;;32.00;33.40;;;;;;2278170;55;21621;-74
2022/08/09 11:28:30;;;;;;;1.95;0.85;;;32.10;33.40;;;;;;2355347;55;21004;-75
2022/08/09 11:30:57;;;;;;;3.17;0.90;;;32.20;32.80;;;;;;2287221;55;21047;-74
2022/08/09 11:33:36;;;;;;;2.00;0.65;;;32.20;32.80;;;;;;2350565;55;20961;-75
2022/08/09 11:36:06;;;;;;;1.45;0.70;;;32.30;32.50;;;;;;2290260;55;21238;-74
2022/08/09 11:38:34;;;;;;;1.62;0.60;;;32.40;32.30;;;;;;2485654;55;20998;-75
2022/08/09 11:41:38;;;;;;;1.45;0.65;;;32.50;32.30;;;;;;2284749;55;21564;-75
2022/08/09 11:44:05;;;;;;;1.58;0.68;;;32.60;31.80;;;;;;2338518;55;21354;-75
2022/08/09 11:46:56;;;;;;;1.95;0.80;;;32.70;31.60;;;;;;2295930;55;21586;-75
2022/08/09 11:49:57;;;;;;;3.05;0.80;;;32.80;30.80;;;;;;2284987;55;21028;-75
2022/08/09 11:52:24;;;;;;;4.90;0.88;;;32.80;31.10;;;;;;2283873;55;21018;-75
2022/08/09 11:55:27;;;;;;;1.85;0.80;;;32.90;31.50;;;;;;2286007;55;21788;-75
2022/08/09 11:57:54;;;;;;;2.00;0.82;;;33.00;30.70;;;;;;2289212;55;21543;-74
2022/08/09 12:00:21;;;;;;;1.77;0.75;;;33.00;30.90;;;;;;2286081;55;21013;-76
2022/08/09 12:02:50;;;;;;;1.30;0.62;;;33.00;30.70;;;;;;2318892;54;21503;-74
2022/08/09 12:05:17;;;;;;;2.35;0.80;;;33.00;30.50;;;;;;2289079;55;21336;-75
2022/08/09 12:07:43;;;;;;;1.62;0.77;;;33.10;30.30;;;;;;2479580;55;20969;-74
2022/08/09 12:10:10;;;;;;;1.90;0.80;;;33.10;30.10;;;;;;2294806;55;21090;-75
2022/08/09 12:12:46;;;;;;;1.55;0.62;;;33.20;29.90;;;;;;2278581;55;20940;-74
2022/08/09 12:15:23;;;;;;;1.45;0.65;;;33.20;29.40;;;;;;2285278;55;20913;-74
2022/08/09 12:17:50;;;;;;;1.42;0.60;;;33.20;28.90;;;;;;2289683;55;21104;-75
2022/08/09 12:20:22;;;;;;;2.87;0.60;;;33.30;29.00;;;;;;2288127;55;21029;-74
2022/08/09 12:22:58;;;;;;;0.90;0.57;;;33.30;28.70;;;;;;2288336;55;21640;-74
2022/08/09 12:25:26;;;;;;;2.40;0.60;;;33.40;28.30;;;;;;2296125;55;20947;-75
2022/08/09 12:28:13;;;;;;;1.35;0.60;;;33.40;28.60;;;;;;2281248;55;21024;-74
2022/08/09 12:30:40;;;;;;;1.33;0.60;;;33.50;28.30;;;;;;2285025;55;21749;-75
2022/08/09 12:33:07;;;;;;;2.12;0.70;;;33.50;28.80;;;;;;2450314;55;20965;-74
2022/08/09 12:35:34;;;;;;;0.95;0.50;;;33.60;28.80;;;;;;2519580;55;20918;-75
2022/08/09 12:38:19;;;;;;;1.62;0.60;;;33.60;28.90;;;;;;2287398;55;21008;-75
2022/08/09 12:40:47;;;;;;;1.20;0.60;;;33.70;28.50;;;;;;2289773;55;20986;-75
2022/08/09 12:43:16;;;;;;;2.00;0.60;;;33.80;28.80;;;;;;2519442;55;21909;-75
2022/08/09 12:45:53;;;;;;;1.30;0.62;;;33.80;28.70;;;;;;2283057;55;21025;-74
2022/08/09 12:48:19;;;;;;;1.55;0.60;;;33.90;28.40;;;;;;2289064;55;21045;-73
2022/08/09 12:50:47;;;;;;;2.90;0.70;;;34.00;28.60;;;;;;2286457;55;21347;-74
2022/08/09 12:53:25;;;;;;;1.42;0.57;;;34.00;28.10;;;;;;2294908;55;21557;-74
2022/08/09 12:56:11;;;;;;;1.02;0.52;;;34.10;27.50;;;;;;2277711;55;21013;-73
2022/08/09 12:59:29;;;;;;;1.90;0.60;;;34.20;27.10;;;;;;2266050;55;21606;-74
2022/08/09 13:02:06;;;;;;;1.10;0.45;;;34.20;27.20;;;;;;2290704;55;21877;-73
2022/08/09 13:04:33;;;;;;;2.62;0.52;;;34.30;27.00;;;;;;2272806;55;21061;-74
2022/08/09 13:08:32;;;;;;;1.27;0.60;;;34.30;27.10;;;;;;2287327;55;21019;-74
2022/08/09 13:11:00;;;;;;;0.82;0.40;;;34.30;26.60;;;;;;2287333;55;20989;-74